Time;durP1;ratioP1;P1;durP2;ratioP2;P2;SDS_P1;SDS_P2;PMS_P1;PMS_P2;Temp;Humidity;BMP_temperature;BMP_pressure;BME280_temperature;BME280_humidity;BME280_pressure;Samples;Min_cycle;Max_cycle;Signal;HPM_P1;HPM_P2
2022/03/18 00:00:21;;;;;;;13.13;5.72;;;;;;;1.55;76.76;98817.38;5023595;28;20493;-67
2022/03/18 00:02:49;;;;;;;14.00;5.65;;;;;;;1.00;77.31;98727.16;5023388;28;20054;-57
2022/03/18 00:05:16;;;;;;;16.80;5.70;;;;;;;1.57;77.51;98819.84;5021701;28;20061;-67
2022/03/18 00:07:44;;;;;;;14.13;5.07;;;;;;;1.66;76.22;98820.16;5023097;28;20064;-65
2022/03/18 00:10:13;;;;;;;11.00;5.28;;;;;;;1.21;77.09;98769.78;5013394;28;20069;-55
2022/03/18 00:12:41;;;;;;;8.68;3.83;;;;;;;1.26;77.76;98802.56;5018299;28;20077;-58
2022/03/18 00:15:09;;;;;;;9.40;3.65;;;;;;;1.29;79.17;98818.41;5003359;28;20058;-56
2022/03/18 00:17:37;;;;;;;13.52;4.10;;;;;;;1.23;79.59;98816.72;5003841;28;20057;-57
2022/03/18 00:20:06;;;;;;;13.35;4.53;;;;;;;1.21;78.35;98821.66;5003454;28;20053;-67
2022/03/18 00:22:32;;;;;;;7.03;4.00;;;;;;;1.24;78.48;98815.66;5018565;28;20623;-67
2022/03/18 00:24:59;;;;;;;9.75;4.70;;;;;;;1.06;79.17;98818.03;5003288;28;20533;-67
2022/03/18 00:27:26;;;;;;;13.88;4.70;;;;;;;1.13;78.81;98818.59;5003595;28;20046;-55
2022/03/18 00:29:54;;;;;;;16.92;5.45;;;;;;;1.11;79.29;98821.59;5003561;28;20061;-57
2022/03/18 00:32:21;;;;;;;24.98;9.02;;;;;;;1.15;78.85;98811.81;5003575;28;20265;-55
2022/03/18 00:34:48;;;;;;;19.35;6.78;;;;;;;1.16;78.86;98816.16;5018581;28;20065;-57
2022/03/18 00:37:15;;;;;;;12.93;4.18;;;;;;;0.80;79.34;98811.63;5003617;28;20068;-55
2022/03/18 00:39:42;;;;;;;9.10;4.50;;;;;;;0.14;83.26;98804.09;5005586;28;20062;-55
2022/03/18 00:42:11;;;;;;;16.13;4.75;;;;;;;0.46;83.85;98829.38;5006661;28;20052;-67
2022/03/18 00:44:38;;;;;;;12.15;5.47;;;;;;;0.51;83.46;98793.97;5006815;28;20148;-55
2022/03/18 00:51:59;;;;;;;20.75;6.07;;;;;;;0.74;82.03;98820.88;5006689;28;20116;-55
2022/03/18 00:52:37;;;;;;;13.20;6.32;;;;;;;0.77;81.13;98803.97;5006918;28;20052;-56
2022/03/18 00:55:04;;;;;;;19.77;7.90;;;;;;;0.98;80.27;98827.53;5005951;28;20054;-67
2022/03/18 00:57:31;;;;;;;14.40;6.38;;;;;;;0.91;78.65;98809.75;5006041;28;20512;-67
2022/03/18 00:59:58;;;;;;;8.00;3.42;;;;;;;0.09;82.69;98839.47;5006429;28;20129;-67
2022/03/18 01:02:24;;;;;;;13.10;4.38;;;;;;;-0.24;85.15;98834.25;5006175;28;20080;-66
2022/03/18 01:04:51;;;;;;;8.98;4.47;;;;;;;-0.03;85.94;98857.84;5006515;28;20057;-55
2022/03/18 01:07:18;;;;;;;12.45;5.95;;;;;;;0.16;84.88;98837.31;5006074;28;20577;-67
2022/03/18 01:09:45;;;;;;;15.75;4.90;;;;;;;0.21;81.47;98839.25;5012398;28;20053;-55
2022/03/18 01:12:12;;;;;;;15.93;3.78;;;;;;;-0.40;85.19;98846.88;5025931;28;20053;-60
2022/03/18 01:14:39;;;;;;;10.52;3.90;;;;;;;-0.44;86.35;98839.47;5024132;28;20068;-68
2022/03/18 01:17:05;;;;;;;10.35;4.20;;;;;;;-0.68;86.18;98779.06;5026013;28;20049;-55
2022/03/18 01:19:32;;;;;;;9.75;4.10;;;;;;;-0.54;85.70;98796.63;5024029;28;20504;-56
2022/03/18 01:21:59;;;;;;;10.15;4.57;;;;;;;-0.65;86.26;98838.41;5025524;28;20054;-66
2022/03/18 01:24:25;;;;;;;13.98;5.18;;;;;;;-0.60;86.73;98813.19;5025580;28;20064;-55
2022/03/18 01:26:52;;;;;;;15.45;5.30;;;;;;;-0.37;86.27;98845.53;5025498;28;20056;-57
2022/03/18 01:29:19;;;;;;;11.25;3.90;;;;;;;-0.35;85.14;98840.66;5025654;28;20049;-67
2022/03/18 01:31:48;;;;;;;15.70;5.25;;;;;;;-0.91;86.85;98816.59;5025747;28;20081;-55
2022/03/18 01:34:15;;;;;;;13.25;5.50;;;;;;;-0.45;86.62;98848.72;5023871;28;20053;-56
2022/03/18 01:36:42;;;;;;;13.57;4.78;;;;;;;-0.27;85.02;98842.94;5025522;28;20516;-55
2022/03/18 01:39:08;;;;;;;13.65;6.03;;;;;;;-0.35;85.47;98843.38;5025606;28;20053;-68
2022/03/18 01:41:35;;;;;;;16.23;5.65;;;;;;;-0.30;84.58;98841.53;5024137;28;20049;-67
2022/03/18 01:44:02;;;;;;;15.95;6.18;;;;;;;-0.16;83.60;98855.56;5025168;28;20052;-57
2022/03/18 01:46:28;;;;;;;16.77;6.20;;;;;;;-0.08;80.52;98844.22;5025120;28;20057;-68
2022/03/18 01:48:55;;;;;;;15.25;6.32;;;;;;;-0.41;78.54;98811.75;5025288;28;20050;-68
2022/03/18 01:51:23;;;;;;;15.00;5.72;;;;;;;-0.19;79.23;98853.38;5024880;28;20410;-67
2022/03/18 01:54:44;;;;;;;12.50;6.10;;;;;;;-0.23;78.97;98846.78;5025126;28;20057;-67
2022/03/18 01:56:37;;;;;;;10.80;4.32;;;;;;;-0.38;65.32;98876.56;5025336;28;20102;-57
2022/03/18 01:59:04;;;;;;;12.00;4.78;;;;;;;-0.74;69.98;98801.03;5024565;28;20160;-67
2022/03/18 02:01:31;;;;;;;11.38;4.05;;;;;;;-0.33;65.00;98863.00;5025021;28;20072;-55
2022/03/18 02:03:58;;;;;;;4.45;1.42;;;;;;;-0.66;62.04;98855.00;5024921;28;20049;-67
2022/03/18 02:06:25;;;;;;;10.25;4.05;;;;;;;-0.29;65.09;98875.03;5023453;28;20065;-67
2022/03/18 02:08:52;;;;;;;11.73;4.68;;;;;;;-0.30;66.46;98873.41;5024310;28;20053;-57
2022/03/18 02:11:18;;;;;;;10.25;4.95;;;;;;;-0.24;66.15;98883.25;5019287;28;20046;-68
2022/03/18 02:13:50;;;;;;;12.10;4.35;;;;;;;-0.24;62.44;98877.81;5004776;28;20496;-57
2022/03/18 02:16:16;;;;;;;14.15;5.03;;;;;;;-0.21;63.74;98889.03;5003548;28;20064;-68
2022/03/18 02:18:43;;;;;;;11.88;4.57;;;;;;;-0.43;63.67;98863.69;5005156;28;20058;-58
2022/03/18 02:21:14;;;;;;;8.52;4.07;;;;;;;-0.14;63.03;98905.13;5005161;28;20503;-55
2022/03/18 02:23:42;;;;;;;12.32;5.03;;;;;;;-0.66;61.50;98792.41;5004897;28;20058;-66
2022/03/18 02:26:09;;;;;;;15.23;5.35;;;;;;;-0.11;62.95;98888.28;5005032;28;20060;-68
2022/03/18 02:28:36;;;;;;;15.85;5.93;;;;;;;-0.44;61.88;98828.56;5003442;28;20451;-56
2022/03/18 02:31:03;;;;;;;25.83;9.25;;;;;;;-0.04;59.36;98900.63;5003328;28;20588;-55
2022/03/18 02:33:30;;;;;;;16.15;5.75;;;;;;;0.00;59.12;98890.06;5003623;28;20111;-55
2022/03/18 02:35:56;;;;;;;18.70;7.25;;;;;;;0.02;59.53;98903.41;5003743;28;20054;-68
2022/03/18 02:38:23;;;;;;;18.67;7.85;;;;;;;-0.04;58.49;98905.25;5005422;28;20492;-55
2022/03/18 02:40:50;;;;;;;20.50;8.30;;;;;;;-0.13;59.97;98901.34;5004271;28;20057;-56
2022/03/18 02:43:16;;;;;;;19.77;7.70;;;;;;;-0.23;61.64;98899.34;5004711;28;20088;-68
2022/03/18 02:45:43;;;;;;;16.27;7.18;;;;;;;-0.62;61.96;98858.88;5003992;28;20504;-67
2022/03/18 02:48:10;;;;;;;19.73;6.85;;;;;;;-0.32;61.62;98875.53;5003604;28;20061;-55
2022/03/18 02:50:37;;;;;;;16.00;6.15;;;;;;;-0.88;62.36;98816.09;5003302;28;20066;-68
2022/03/18 02:53:03;;;;;;;21.23;7.75;;;;;;;-0.37;62.53;98900.81;5003773;28;20547;-67
2022/03/18 02:55:30;;;;;;;16.85;7.65;;;;;;;-0.48;62.23;98871.84;5004811;28;20137;-67
2022/03/18 02:57:57;;;;;;;25.10;8.23;;;;;;;-1.15;63.10;98777.13;5004261;28;20381;-55
2022/03/18 03:00:25;;;;;;;17.35;7.43;;;;;;;-0.46;62.71;98906.97;5002609;28;20528;-66
2022/03/18 03:02:52;;;;;;;16.08;6.60;;;;;;;-0.60;64.65;98902.97;5003525;28;20050;-68
2022/03/18 03:08:04;;;;;;;24.95;8.70;;;;;;;-0.98;64.53;98889.41;5004428;28;20050;-67
2022/03/18 03:10:36;;;;;;;19.70;6.43;;;;;;;-0.80;64.61;98916.31;5004107;28;20056;-58
2022/03/18 03:13:08;;;;;;;14.48;6.43;;;;;;;-0.88;65.40;98924.91;5004193;28;20049;-68
2022/03/18 03:15:35;;;;;;;20.23;6.70;;;;;;;-1.43;65.93;98835.22;5002521;28;20069;-69
2022/03/18 03:18:02;;;;;;;22.67;7.30;;;;;;;-0.76;64.29;98922.91;5004034;28;20057;-56
2022/03/18 03:20:29;;;;;;;20.75;8.38;;;;;;;-0.78;65.21;98930.47;5002245;28;20427;-68
2022/03/18 03:22:56;;;;;;;24.23;8.85;;;;;;;-0.88;66.60;98930.34;5002614;28;20064;-55
2022/03/18 03:25:23;;;;;;;23.63;8.50;;;;;;;-1.48;64.52;98845.19;5003927;28;20054;-55
2022/03/18 03:27:54;;;;;;;21.83;8.32;;;;;;;-1.17;64.29;98915.25;5004265;28;20074;-55
2022/03/18 03:30:22;;;;;;;28.42;10.93;;;;;;;-0.96;64.25;98939.75;5003896;28;20573;-55
2022/03/18 03:32:49;;;;;;;18.80;8.68;;;;;;;-1.24;57.01;98920.84;5004021;28;20068;-58
2022/03/18 03:35:16;;;;;;;24.08;10.88;;;;;;;-1.13;58.90;98941.69;5003745;28;20226;-58
2022/03/18 03:37:43;;;;;;;24.25;10.52;;;;;;;-1.03;61.39;98960.03;5003489;28;20050;-67
2022/03/18 03:40:15;;;;;;;21.40;9.25;;;;;;;-0.99;62.37;98961.19;5003340;28;20076;-68
2022/03/18 03:42:42;;;;;;;21.70;8.10;;;;;;;-0.98;63.14;98971.00;5003621;28;20061;-68
2022/03/18 03:45:12;;;;;;;24.13;10.02;;;;;;;-0.98;63.38;98963.66;5002012;28;20057;-57
2022/03/18 03:47:40;;;;;;;26.80;10.70;;;;;;;-1.11;61.84;98930.56;5004287;28;20194;-56
2022/03/18 03:50:08;;;;;;;31.88;11.65;;;;;;;-1.05;62.28;98971.19;5003917;28;20050;-67
2022/03/18 03:52:35;;;;;;;35.35;12.55;;;;;;;-1.17;63.37;98969.63;5002304;28;20057;-67
2022/03/18 03:55:06;;;;;;;37.10;14.68;;;;;;;-1.15;63.12;98972.88;5003015;28;20063;-67
2022/03/18 03:57:33;;;;;;;36.40;13.60;;;;;;;-1.03;64.29;98971.75;5003632;28;20057;-58
2022/03/18 04:00:00;;;;;;;26.63;11.32;;;;;;;-1.59;64.30;98923.84;5003620;28;20046;-55
2022/03/18 04:02:27;;;;;;;33.22;12.88;;;;;;;-1.29;64.27;98971.59;5003855;28;20329;-68
2022/03/18 04:04:54;;;;;;;25.58;10.90;;;;;;;-1.33;65.77;98970.44;5004300;28;20053;-58
2022/03/18 04:07:21;;;;;;;29.38;11.27;;;;;;;-1.41;66.32;98984.44;5003679;28;20046;-56
2022/03/18 04:09:49;;;;;;;24.95;8.55;;;;;;;-1.65;66.47;98957.41;5009386;28;20128;-57
2022/03/18 04:12:16;;;;;;;24.73;9.10;;;;;;;-2.11;66.31;98887.09;5023185;28;20053;-68
2022/03/18 04:14:43;;;;;;;30.63;10.50;;;;;;;-1.79;66.67;98961.50;5025180;28;20053;-66
2022/03/18 04:17:09;;;;;;;29.70;13.55;;;;;;;-1.98;66.82;98932.09;5027154;28;20049;-67
2022/03/18 04:19:36;;;;;;;25.45;11.27;;;;;;;-1.68;66.62;98984.25;5026799;28;20064;-59
2022/03/18 04:22:03;;;;;;;24.33;8.68;;;;;;;-1.61;65.83;98993.88;5027120;28;20405;-56
2022/03/18 04:24:29;;;;;;;92.93;25.83;;;;;;;-1.78;65.39;98982.16;5027162;28;20049;-67
2022/03/18 04:26:56;;;;;;;23.88;7.90;;;;;;;-1.98;65.58;98962.81;5026614;28;20049;-56
2022/03/18 04:29:23;;;;;;;18.73;7.35;;;;;;;-2.19;64.72;98959.91;5026608;28;20057;-67
2022/03/18 04:31:51;;;;;;;24.10;9.43;;;;;;;-1.87;65.70;98997.22;5026455;28;20060;-67
2022/03/18 04:34:18;;;;;;;20.08;8.27;;;;;;;-1.89;65.46;99003.94;5024725;28;20118;-68
2022/03/18 04:36:45;;;;;;;23.23;8.13;;;;;;;-2.20;66.40;98991.69;5026158;28;20144;-67
2022/03/18 04:39:12;;;;;;;23.65;8.95;;;;;;;-2.10;65.32;99007.31;5026595;28;20049;-68
2022/03/18 04:41:38;;;;;;;19.85;7.93;;;;;;;-2.11;65.16;98975.81;5026588;28;20061;-57
2022/03/18 04:44:05;;;;;;;21.33;8.07;;;;;;;-2.49;65.02;98916.75;5025322;28;20512;-68
2022/03/18 04:46:32;;;;;;;26.27;10.15;;;;;;;-1.83;65.03;98992.09;5026530;28;20060;-56
2022/03/18 04:48:59;;;;;;;34.38;13.38;;;;;;;-1.63;63.66;99015.03;5026139;28;20049;-56
2022/03/18 04:51:26;;;;;;;45.60;17.70;;;;;;;-2.27;63.51;98915.00;5025880;28;20053;-68
2022/03/18 04:53:53;;;;;;;42.50;15.48;;;;;;;-1.42;62.50;99010.78;5024670;28;20057;-56
2022/03/18 04:59:06;;;;;;;39.05;14.77;;;;;;;-1.38;61.57;99003.81;5025977;28;20085;-68
2022/03/18 05:01:32;;;;;;;35.10;14.20;;;;;;;-2.17;62.30;98903.50;5024548;28;20056;-68
2022/03/18 05:03:59;;;;;;;21.85;9.45;;;;;;;-1.81;60.92;98925.63;5024890;28;20054;-67
2022/03/18 05:06:26;;;;;;;27.45;11.15;;;;;;;-1.46;59.40;99014.25;5025983;28;20076;-56
2022/03/18 05:08:53;;;;;;;27.08;11.65;;;;;;;-1.26;60.25;99020.84;5025917;28;20436;-56
2022/03/18 05:11:20;;;;;;;33.97;11.40;;;;;;;-1.09;58.01;99015.44;5007848;28;20054;-57
2022/03/18 05:13:47;;;;;;;23.55;9.38;;;;;;;-1.31;58.46;98946.56;5005830;28;20050;-55
2022/03/18 05:16:15;;;;;;;15.32;7.63;;;;;;;-0.84;59.23;99026.69;5005636;28;20073;-56
2022/03/18 05:18:42;;;;;;;24.75;9.55;;;;;;;-0.88;59.84;98998.34;5005899;28;20065;-68
2022/03/18 05:21:08;;;;;;;28.02;9.82;;;;;;;-0.58;57.57;99028.72;5005696;28;20534;-67
2022/03/18 05:23:35;;;;;;;33.22;11.90;;;;;;;-0.98;57.40;98957.41;5004779;28;20934;-66
2022/03/18 05:26:02;;;;;;;28.40;10.02;;;;;;;-0.50;57.88;99031.00;5005373;28;20057;-56
2022/03/18 05:28:30;;;;;;;24.50;10.38;;;;;;;-0.28;56.78;99029.13;5005751;28;20046;-56
2022/03/18 05:30:58;;;;;;;23.25;8.98;;;;;;;-0.52;55.44;98965.13;5003936;28;20058;-56
2022/03/18 05:33:25;;;;;;;20.48;8.27;;;;;;;0.01;54.42;99055.13;5005708;28;20140;-57
2022/03/18 05:35:52;;;;;;;28.45;10.63;;;;;;;0.14;55.57;99043.84;5005479;28;20429;-56
2022/03/18 05:38:19;;;;;;;20.13;8.80;;;;;;;-0.01;53.08;99013.69;5005173;28;20061;-66
2022/03/18 05:40:45;;;;;;;22.77;9.85;;;;;;;0.22;52.94;99040.66;5005285;28;20061;-55
2022/03/18 05:43:13;;;;;;;31.48;10.90;;;;;;;0.26;51.13;99046.41;5005601;28;20061;-56
2022/03/18 05:45:40;;;;;;;25.52;10.25;;;;;;;0.47;51.83;99049.13;5006227;28;20417;-55
2022/03/18 05:48:07;;;;;;;21.90;9.32;;;;;;;0.54;49.87;99049.72;5020590;28;20053;-57
2022/03/18 05:50:34;;;;;;;7.18;1.85;;;;;;;-0.33;47.25;98955.56;5024319;28;20049;-55
2022/03/18 05:53:02;;;;;;;14.20;4.45;;;;;;;-0.54;48.61;98910.13;5025412;28;20495;-65
2022/03/18 05:56:52;;;;;;;15.60;4.05;;;;;;;-0.26;48.43;98939.84;5025343;28;20056;-64
2022/03/18 05:58:21;;;;;;;17.55;4.35;;;;;;;0.01;48.51;98978.84;5024770;28;20075;-58
2022/03/18 06:00:48;;;;;;;11.95;4.60;;;;;;;0.46;46.91;99074.72;5024694;28;20049;-64
2022/03/18 06:03:15;;;;;;;7.93;2.78;;;;;;;0.74;45.87;99049.13;5024727;28;20111;-63
2022/03/18 06:05:42;;;;;;;9.07;3.92;;;;;;;0.55;44.83;99048.66;5024205;28;20073;-65
2022/03/18 06:13:41;;;;;;;12.95;4.45;;;;;;;0.35;45.00;99004.81;5004548;28;20053;-55
2022/03/18 06:16:07;;;;;;;9.95;3.70;;;;;;;0.56;44.44;99024.94;5004757;28;20058;-56
2022/03/18 06:18:38;;;;;;;3.63;2.20;;;;;;;0.62;43.29;99046.53;5004914;28;20052;-65
2022/03/18 06:21:06;;;;;;;4.38;1.95;;;;;;;0.37;43.71;99049.00;5004775;28;20050;-57
2022/03/18 06:23:34;;;;;;;13.63;4.13;;;;;;;0.95;43.49;99079.03;5004642;28;20054;-55
2022/03/18 06:26:02;;;;;;;8.35;3.83;;;;;;;0.71;43.71;99028.63;5002844;28;20054;-58
2022/03/18 06:28:30;;;;;;;10.38;3.45;;;;;;;1.15;43.41;99057.41;5004700;28;20052;-55
2022/03/18 06:30:57;;;;;;;9.50;4.15;;;;;;;1.56;42.54;99075.72;5003074;28;20156;-57
2022/03/18 06:33:24;;;;;;;12.48;3.67;;;;;;;1.58;42.90;99081.75;5003279;28;20054;-64
2022/03/18 06:35:51;;;;;;;7.63;2.90;;;;;;;1.37;43.63;99082.72;5004056;28;20065;-55
2022/03/18 06:38:18;;;;;;;10.88;3.75;;;;;;;1.61;41.68;99082.31;5002750;28;20493;-56
2022/03/18 06:40:44;;;;;;;18.27;3.70;;;;;;;1.65;41.65;99088.88;5004439;28;20053;-65
2022/03/18 06:43:11;;;;;;;6.15;2.95;;;;;;;1.45;41.14;99079.47;5004455;28;20054;-64
2022/03/18 06:45:37;;;;;;;9.95;3.30;;;;;;;1.10;42.42;99024.63;5002478;28;20050;-65
2022/03/18 06:48:04;;;;;;;2.83;1.75;;;;;;;1.11;43.55;99105.41;5004531;28;20077;-65
2022/03/18 06:50:31;;;;;;;14.98;3.72;;;;;;;1.24;43.09;99083.13;5006540;28;20050;-66
2022/03/18 06:52:58;;;;;;;6.70;2.17;;;;;;;0.70;42.67;98949.81;5024333;28;20519;-66
2022/03/18 06:55:24;;;;;;;11.93;3.33;;;;;;;1.33;42.38;99113.50;5024086;28;20057;-65
2022/03/18 06:57:51;;;;;;;12.43;2.63;;;;;;;0.57;42.55;98999.34;5023682;28;20642;-65
2022/03/18 07:00:18;;;;;;;9.50;2.22;;;;;;;0.84;43.27;99099.13;5024100;28;20064;-64
2022/03/18 07:02:45;;;;;;;5.75;3.33;;;;;;;1.24;42.98;99099.50;5023612;28;20148;-55
2022/03/18 07:05:12;;;;;;;7.28;2.28;;;;;;;1.16;41.77;99113.63;5023914;28;20057;-57
2022/03/18 07:07:40;;;;;;;7.80;2.97;;;;;;;1.39;42.18;99107.00;5020382;28;20058;-64
2022/03/18 07:10:07;;;;;;;11.85;3.20;;;;;;;1.04;42.29;99115.69;5009733;28;20275;-69
2022/03/18 07:12:33;;;;;;;16.02;3.17;;;;;;;0.68;41.48;99010.06;5008913;28;20499;-54
2022/03/18 07:15:00;;;;;;;8.43;2.88;;;;;;;1.24;41.71;99115.06;5009175;28;20449;-64
2022/03/18 07:20:13;;;;;;;8.18;2.22;;;;;;;1.32;42.02;99095.47;5010503;28;20053;-62
2022/03/18 07:22:41;;;;;;;7.07;2.63;;;;;;;1.16;41.39;99115.53;5006581;28;20497;-55
2022/03/18 07:25:08;;;;;;;10.32;3.40;;;;;;;1.60;41.38;99113.44;4999706;28;20076;-54
2022/03/18 07:27:35;;;;;;;10.73;4.40;;;;;;;0.99;41.92;99020.16;5001778;28;20057;-63
2022/03/18 07:30:04;;;;;;;7.50;2.83;;;;;;;1.75;40.86;99105.34;5006608;28;20106;-54
2022/03/18 07:32:31;;;;;;;7.30;3.67;;;;;;;0.29;41.56;98954.06;5007387;28;20492;-55
2022/03/18 07:34:57;;;;;;;9.35;3.03;;;;;;;1.02;41.73;99011.47;5022775;28;20508;-57
2022/03/18 07:37:26;;;;;;;7.28;2.22;;;;;;;1.45;40.95;99101.31;5021542;28;20053;-63
2022/03/18 07:39:53;;;;;;;9.82;3.50;;;;;;;1.23;41.22;99028.81;5022159;28;20518;-64
2022/03/18 07:42:19;;;;;;;8.80;2.17;;;;;;;1.19;41.25;99036.69;5022382;28;20049;-53
2022/03/18 07:44:46;;;;;;;6.82;2.67;;;;;;;1.28;41.84;99106.09;5018568;28;20512;-63
2022/03/18 07:47:13;;;;;;;13.27;4.47;;;;;;;1.52;42.38;99104.66;5004527;28;20046;-66
2022/03/18 07:49:39;;;;;;;5.90;2.88;;;;;;;1.58;41.25;99088.31;5009842;28;20169;-68
2022/03/18 07:52:07;;;;;;;11.13;3.67;;;;;;;1.39;42.65;99036.81;5005598;28;20097;-57
2022/03/18 07:54:34;;;;;;;10.32;4.03;;;;;;;1.69;41.28;99047.16;5019685;28;20505;-56
2022/03/18 07:57:01;;;;;;;7.97;3.65;;;;;;;2.13;41.52;99064.88;5014786;28;20056;-55
2022/03/18 07:59:27;;;;;;;8.38;3.20;;;;;;;2.17;40.59;99076.06;5018906;28;20044;-64
2022/03/18 08:01:54;;;;;;;5.70;2.35;;;;;;;2.29;40.75;99090.34;5009769;28;20384;-68
2022/03/18 08:04:21;;;;;;;11.23;4.20;;;;;;;2.29;40.85;99068.47;5006732;28;20136;-56
2022/03/18 08:06:47;;;;;;;13.55;4.13;;;;;;;2.21;40.89;99027.97;5023324;28;20153;-56
2022/03/18 08:09:14;;;;;;;7.63;3.00;;;;;;;2.50;40.27;99094.78;5007292;28;20057;-66
2022/03/18 08:11:42;;;;;;;4.28;1.90;;;;;;;2.03;41.13;99102.22;5006195;28;20053;-60
2022/03/18 08:14:09;;;;;;;7.72;2.70;;;;;;;2.07;40.73;99086.97;5010887;28;20056;-54
2022/03/18 08:16:35;;;;;;;12.70;3.70;;;;;;;1.90;42.25;99068.00;5006092;28;20065;-66
2022/03/18 08:19:02;;;;;;;9.95;3.72;;;;;;;2.47;42.31;99089.84;5017190;28;20057;-58
2022/03/18 08:21:32;;;;;;;9.52;3.83;;;;;;;2.37;41.92;99103.50;5016316;28;20500;-57
2022/03/18 08:23:59;;;;;;;7.82;3.28;;;;;;;2.32;41.91;99078.88;5006710;28;20054;-55
2022/03/18 08:26:27;;;;;;;4.53;2.22;;;;;;;2.41;41.61;99039.81;5008858;28;20046;-60
2022/03/18 08:28:53;;;;;;;8.15;2.83;;;;;;;2.43;41.39;99080.56;5029150;28;20061;-65
2022/03/18 08:31:20;;;;;;;7.50;2.80;;;;;;;2.69;40.33;99076.78;5012631;28;20435;-55
2022/03/18 08:33:47;;;;;;;11.05;3.00;;;;;;;2.63;40.36;99080.63;5019149;28;20045;-64
2022/03/18 08:36:18;;;;;;;7.40;2.80;;;;;;;2.17;41.37;99081.53;5015271;28;20046;-56
2022/03/18 08:38:45;;;;;;;7.03;2.38;;;;;;;2.35;40.12;99068.22;5015512;28;20049;-62
2022/03/18 08:41:12;;;;;;;8.35;3.17;;;;;;;2.63;41.39;99080.63;5014698;28;20059;-55
2022/03/18 08:43:39;;;;;;;3.38;1.45;;;;;;;2.09;40.72;98986.38;5015767;28;20070;-55
2022/03/18 08:46:06;;;;;;;7.50;2.85;;;;;;;2.69;40.98;99052.16;5008453;28;20651;-59
2022/03/18 08:48:33;;;;;;;3.38;2.20;;;;;;;2.01;42.16;99019.72;5005819;28;20585;-63
2022/03/18 08:51:00;;;;;;;11.90;6.05;;;;;;;2.15;42.69;99029.06;5015933;28;20478;-61
2022/03/18 08:53:26;;;;;;;8.90;3.88;;;;;;;2.83;41.76;99075.19;5006062;28;20081;-55
2022/03/18 08:55:55;;;;;;;8.02;2.80;;;;;;;2.57;39.95;99073.50;5012982;28;20053;-57
2022/03/18 08:58:22;;;;;;;9.73;4.25;;;;;;;2.72;40.66;99068.88;5010328;28;20132;-66
2022/03/18 09:00:49;;;;;;;7.28;3.13;;;;;;;2.22;40.60;99060.50;5014414;28;20054;-65
2022/03/18 09:03:16;;;;;;;9.05;3.47;;;;;;;2.79;41.16;99060.41;5006213;28;20058;-54
2022/03/18 09:05:43;;;;;;;9.52;4.45;;;;;;;3.22;39.96;99062.66;5005966;28;20053;-55
2022/03/18 09:08:10;;;;;;;35.67;11.20;;;;;;;3.10;38.86;99026.47;5004887;28;20081;-56
2022/03/18 09:10:37;;;;;;;10.85;4.63;;;;;;;3.46;39.59;99058.25;5009033;28;20050;-65
2022/03/18 09:13:07;;;;;;;7.28;3.05;;;;;;;3.22;39.13;98991.44;5016661;28;20133;-55
2022/03/18 09:15:34;;;;;;;7.28;3.30;;;;;;;3.70;38.61;99059.31;5019471;28;20069;-65
2022/03/18 09:18:01;;;;;;;4.82;2.60;;;;;;;3.86;37.59;99044.47;5020176;28;20426;-56
2022/03/18 09:20:27;;;;;;;4.15;2.08;;;;;;;3.32;36.62;98957.75;5006112;28;20062;-63
2022/03/18 09:22:54;;;;;;;7.00;3.22;;;;;;;3.76;37.77;99052.72;5014894;28;20571;-61
2022/03/18 09:25:21;;;;;;;9.75;2.65;;;;;;;3.80;37.22;99044.75;5021680;28;20049;-62
2022/03/18 09:27:48;;;;;;;5.68;2.53;;;;;;;3.44;37.71;99060.44;5023118;28;20115;-61
2022/03/18 09:30:35;;;;;;;7.68;2.80;;;;;;;3.40;37.48;99048.38;5023028;28;20060;-55
2022/03/18 09:33:02;;;;;;;8.10;3.33;;;;;;;3.47;36.58;99048.09;5022828;28;20204;-62
2022/03/18 09:35:29;;;;;;;6.78;1.90;;;;;;;3.70;35.97;99048.34;5025013;28;20054;-62
2022/03/18 09:37:55;;;;;;;4.85;2.25;;;;;;;3.75;37.16;99056.56;5025181;28;20053;-62
2022/03/18 09:40:22;;;;;;;4.50;2.30;;;;;;;3.80;36.19;99053.81;5025381;28;20152;-62
2022/03/18 09:43:05;;;;;;;6.68;2.30;;;;;;;3.57;36.22;99057.16;5025359;28;20522;-55
2022/03/18 09:45:35;;;;;;;6.60;3.05;;;;;;;3.77;36.90;99059.84;5025196;28;20100;-55
2022/03/18 09:48:07;;;;;;;5.78;1.83;;;;;;;3.58;36.31;99061.53;5025314;28;20052;-55
2022/03/18 09:50:34;;;;;;;6.97;2.25;;;;;;;3.26;34.97;98980.78;5023806;28;20522;-57
2022/03/18 09:53:01;;;;;;;6.68;2.47;;;;;;;4.00;35.54;99042.78;5025939;28;20512;-61
2022/03/18 09:55:30;;;;;;;3.83;1.73;;;;;;;3.70;34.47;99064.78;5025613;28;20057;-62
2022/03/18 09:57:57;;;;;;;5.47;2.03;;;;;;;3.31;35.41;98995.25;5024405;28;20580;-62
2022/03/18 10:00:27;;;;;;;3.35;1.65;;;;;;;3.59;34.61;99057.69;5024769;28;20053;-62
2022/03/18 10:03:16;;;;;;;23.67;5.95;;;;;;;3.49;34.37;99051.41;5024211;28;20049;-57
2022/03/18 10:05:49;;;;;;;12.35;3.88;;;;;;;3.59;34.73;99052.19;5024441;28;20053;-59
2022/03/18 10:08:17;;;;;;;4.90;2.05;;;;;;;3.81;35.15;99052.72;5024681;28;20491;-57
2022/03/18 10:10:46;;;;;;;4.85;2.00;;;;;;;3.76;35.46;99055.44;5024313;28;20085;-57
2022/03/18 10:13:15;;;;;;;6.25;2.10;;;;;;;4.08;34.67;99053.19;5019311;28;20468;-56
2022/03/18 10:15:42;;;;;;;5.72;1.60;;;;;;;3.53;34.10;99053.31;5004436;28;20057;-56
2022/03/18 10:18:11;;;;;;;4.38;2.13;;;;;;;3.44;34.13;99049.50;5004166;28;20054;-56
2022/03/18 10:20:41;;;;;;;5.75;2.20;;;;;;;3.86;34.54;99008.84;5004536;28;20056;-56
2022/03/18 10:23:16;;;;;;;3.95;1.70;;;;;;;3.86;33.83;99057.34;5003091;28;20050;-56
2022/03/18 10:25:50;;;;;;;5.85;1.95;;;;;;;3.64;34.84;99049.47;5004317;28;20136;-55
2022/03/18 10:28:41;;;;;;;7.78;2.30;;;;;;;4.30;34.37;99041.88;5003311;28;20096;-61
2022/03/18 10:31:19;;;;;;;5.85;1.90;;;;;;;4.43;34.57;99047.56;5004684;28;20517;-56
2022/03/18 10:37:07;;;;;;;6.60;2.45;;;;;;;4.66;34.86;99037.84;5004872;28;20057;-55
2022/03/18 10:39:42;;;;;;;5.10;2.35;;;;;;;4.78;33.82;99038.31;5004766;28;20057;-60
2022/03/18 10:42:16;;;;;;;4.30;2.17;;;;;;;4.49;33.61;98935.84;5004261;28;20054;-61
2022/03/18 10:45:00;;;;;;;5.10;2.28;;;;;;;5.20;34.34;99029.50;5004490;28;20562;-61
2022/03/18 10:47:36;;;;;;;4.20;1.80;;;;;;;5.53;33.71;99023.16;5004743;28;20148;-60
2022/03/18 10:50:26;;;;;;;7.82;2.90;;;;;;;5.11;34.63;99033.94;5004658;28;20425;-59
2022/03/18 10:52:53;;;;;;;6.60;2.25;;;;;;;5.57;33.85;99024.19;5003471;28;20054;-61
2022/03/18 10:55:29;;;;;;;4.78;3.05;;;;;;;5.57;34.54;99032.44;5004814;28;20049;-56
2022/03/18 10:58:08;;;;;;;5.50;2.75;;;;;;;5.74;34.18;99030.06;5004371;28;20454;-55
2022/03/18 11:00:36;;;;;;;6.30;2.60;;;;;;;5.46;34.37;99026.22;5004387;28;20065;-55
2022/03/18 11:03:05;;;;;;;6.50;2.75;;;;;;;4.96;35.38;99023.91;5002985;28;20050;-61
2022/03/18 11:05:38;;;;;;;4.38;1.85;;;;;;;3.77;36.31;99037.94;5003850;28;20053;-56
2022/03/18 11:08:24;;;;;;;5.55;2.13;;;;;;;4.40;35.55;99022.59;5003554;28;20301;-61
2022/03/18 11:13:42;;;;;;;5.90;1.70;;;;;;;4.56;33.37;99030.47;5003845;28;20468;-62
2022/03/18 11:16:12;;;;;;;4.82;2.38;;;;;;;3.91;34.03;99028.03;5001860;28;20140;-58
2022/03/18 11:18:41;;;;;;;6.55;2.65;;;;;;;3.68;34.71;98940.94;5003718;28;20062;-56
2022/03/18 11:21:09;;;;;;;5.30;2.45;;;;;;;4.39;35.37;99031.94;5002547;28;20065;-56
2022/03/18 11:23:40;;;;;;;2.72;1.60;;;;;;;4.93;34.85;99037.38;5003655;28;20379;-58
2022/03/18 11:26:10;;;;;;;6.35;2.30;;;;;;;4.75;34.08;99027.91;5003820;28;20077;-58
2022/03/18 11:28:37;;;;;;;3.97;1.88;;;;;;;4.64;33.60;99035.38;5004099;28;20413;-62
2022/03/18 11:31:06;;;;;;;7.47;2.90;;;;;;;4.65;34.50;99017.78;5003902;28;20056;-61
2022/03/18 11:33:34;;;;;;;20.98;6.60;;;;;;;5.05;33.81;99022.19;5002336;28;20152;-62
2022/03/18 11:36:01;;;;;;;17.35;7.20;;;;;;;5.03;34.47;99010.66;5003148;28;20062;-59
2022/03/18 11:38:51;;;;;;;5.10;1.95;;;;;;;4.99;35.07;98989.56;5003816;28;20488;-56
2022/03/18 11:41:19;;;;;;;2.90;1.52;;;;;;;4.39;34.56;99008.06;5003155;28;20161;-62
2022/03/18 11:43:45;;;;;;;4.07;2.00;;;;;;;4.37;35.21;99021.25;5003611;28;20092;-61
2022/03/18 11:46:12;;;;;;;7.43;2.50;;;;;;;4.86;35.64;99028.63;5003768;28;20058;-61
2022/03/18 11:48:49;;;;;;;6.53;3.20;;;;;;;5.00;35.22;99018.66;5002250;28;20152;-62
2022/03/18 11:51:35;;;;;;;3.67;1.50;;;;;;;4.92;35.28;99016.50;5003348;28;20441;-58
2022/03/18 11:54:05;;;;;;;6.47;2.15;;;;;;;4.77;34.98;98978.19;5003529;28;20064;-61
2022/03/18 11:56:50;;;;;;;6.53;1.63;;;;;;;4.57;34.90;99009.31;5001897;28;20089;-58
2022/03/18 11:59:27;;;;;;;2.80;1.48;;;;;;;4.88;34.71;99004.47;5002008;28;20060;-55
2022/03/18 12:02:09;;;;;;;4.63;1.67;;;;;;;3.97;35.21;98930.94;5003703;28;20137;-57